Terminal Aerodrome Forecast
Issued by NWS Charleston, WV

Current Version | Previous Version | Graphics & Text | Print | Product List | Glossary On
Versions: 1 2 3 4 5 6 7 8 9 10 11 12 13 14 15 16 17 18 19 20 21 22 23 24 25 26
154
FTUS41 KRLX 160534
TAFCRW
TAF
KCRW 160534Z 1606/1706 23013G24KT P6SM FEW028 BKN050 OVC060
     FM160730 23018G29KT 6SM SHRA OVC028
     FM160900 24016G24KT 4SM SHRA OVC021
     FM161300 29007KT 1 1/2SM SHRA OVC015
     FM161900 32009KT 2SM -SHRA OVC009
     FM162000 31009KT P6SM OVC014
     FM170000 33006KT P6SM SCT020=

USA.gov is the U.S. government's official web portal to all federal, state and local government web resources and services.